Time;durP1;ratioP1;P1;durP2;ratioP2;P2;SDS_P1;SDS_P2;PMS_P1;PMS_P2;Temp;Humidity;BMP_temperature;BMP_pressure;BME280_temperature;BME280_humidity;BME280_pressure;Samples;Min_cycle;Max_cycle;Signal;HPM_P1;HPM_P2
2022/10/29 00:00:42;;;;;;;31.92;16.83;;;;;;;;;;5032268;28;20028;-76
2022/10/29 00:03:08;;;;;;;28.20;16.23;;;;;;;;;;5030552;28;20030;-78
2022/10/29 00:05:34;;;;;;;30.05;16.00;;;;;;;;;;5032011;28;20025;-77
2022/10/29 00:08:00;;;;;;;33.40;15.70;;;;;;;;;;5030069;28;20037;-77
2022/10/29 00:10:26;;;;;;;29.10;14.80;;;;;;;;;;5029762;28;20025;-77
2022/10/29 00:12:52;;;;;;;32.83;17.08;;;;;;;;;;5030977;28;20087;-75
2022/10/29 00:15:18;;;;;;;31.90;17.45;;;;;;;;;;5030329;28;20060;-75
2022/10/29 00:17:43;;;;;;;28.80;17.00;;;;;;;;;;5030329;28;20116;-77
2022/10/29 00:20:10;;;;;;;30.80;16.92;;;;;;;;;;5030877;28;20060;-76
2022/10/29 00:22:35;;;;;;;26.08;16.33;;;;;;;;;;5030016;28;20058;-78
2022/10/29 00:25:01;;;;;;;29.33;16.88;;;;;;;;;;5030751;28;20040;-77
2022/10/29 00:27:26;;;;;;;27.77;16.40;;;;;;;;;;5031520;28;20086;-77
2022/10/29 00:29:53;;;;;;;32.33;16.70;;;;;;;;;;5031459;28;20108;-77
2022/10/29 00:32:19;;;;;;;27.80;16.45;;;;;;;;;;5030507;28;20036;-77
2022/10/29 00:34:44;;;;;;;30.17;16.45;;;;;;;;;;5030095;28;20377;-77
2022/10/29 00:37:09;;;;;;;27.30;16.25;;;;;;;;;;5031090;28;20045;-78
2022/10/29 00:39:35;;;;;;;26.58;15.98;;;;;;;;;;5029541;28;20469;-77
2022/10/29 00:42:01;;;;;;;29.05;16.98;;;;;;;;;;5029474;28;20032;-77
2022/10/29 00:44:37;;;;;;;36.03;17.10;;;;;;;;;;5031074;28;20029;-78
2022/10/29 00:47:21;;;;;;;28.08;16.70;;;;;;;;;;5031167;28;20025;-77
2022/10/29 00:50:02;;;;;;;30.27;17.23;;;;;;;;;;5029817;28;20575;-78
2022/10/29 00:52:31;;;;;;;30.10;16.50;;;;;;;;;;5031211;28;20045;-75
2022/10/29 00:55:01;;;;;;;40.90;23.83;;;;;;;;;;5032727;28;20032;-76
2022/10/29 00:57:38;;;;;;;31.70;17.17;;;;;;;;;;5035046;28;20040;-77
2022/10/29 01:00:05;;;;;;;30.00;16.48;;;;;;;;;;5033637;28;20025;-76
2022/10/29 01:02:33;;;;;;;30.88;17.20;;;;;;;;;;5035061;28;20049;-76
2022/10/29 01:05:01;;;;;;;27.15;16.83;;;;;;;;;;5033410;28;20033;-77
2022/10/29 01:07:27;;;;;;;27.83;14.55;;;;;;;;;;5033110;28;20052;-77
2022/10/29 01:09:53;;;;;;;28.80;15.88;;;;;;;;;;5034120;28;20036;-76
2022/10/29 01:12:18;;;;;;;30.27;16.23;;;;;;;;;;5033010;28;20108;-77
2022/10/29 01:14:51;;;;;;;29.85;17.35;;;;;;;;;;5033049;28;20500;-77
2022/10/29 01:17:34;;;;;;;36.15;17.08;;;;;;;;;;5034341;28;20145;-77
2022/10/29 01:20:18;;;;;;;29.10;15.82;;;;;;;;;;5033363;28;20400;-77
2022/10/29 01:23:05;;;;;;;26.23;15.57;;;;;;;;;;5049068;28;20049;-77
2022/10/29 01:26:27;;;;;;;28.58;15.68;;;;;;;;;;5035746;28;20052;-75
2022/10/29 01:29:04;;;;;;;26.20;14.60;;;;;;;;;;4992520;28;20037;-78
2022/10/29 01:31:35;;;;;;;33.55;15.77;;;;;;;;;;4992725;28;20034;-76
2022/10/29 01:34:09;;;;;;;27.75;16.15;;;;;;;;;;5027924;28;20044;-76
2022/10/29 01:36:57;;;;;;;35.40;17.15;;;;;;;;;;5054295;28;20025;-77
2022/10/29 01:39:41;;;;;;;35.45;18.02;;;;;;;;;;5053767;28;20447;-77
2022/10/29 01:42:27;;;;;;;30.38;16.63;;;;;;;;;;5054222;28;20074;-77
2022/10/29 01:45:01;;;;;;;38.85;18.00;;;;;;;;;;5035118;28;20020;-77
2022/10/29 01:47:35;;;;;;;27.40;15.82;;;;;;;;;;5053465;28;20060;-77
2022/10/29 01:50:05;;;;;;;34.22;16.58;;;;;;;;;;5034979;28;20115;-77
2022/10/29 01:52:33;;;;;;;27.92;17.85;;;;;;;;;;5036031;28;20056;-77
2022/10/29 01:54:58;;;;;;;37.28;17.40;;;;;;;;;;5035988;28;20028;-78
2022/10/29 01:57:24;;;;;;;27.70;16.95;;;;;;;;;;5053610;28;20499;-75
2022/10/29 01:59:51;;;;;;;32.97;18.35;;;;;;;;;;5053610;28;20032;-76
2022/10/29 02:02:54;;;;;;;33.83;17.33;;;;;;;;;;5034486;28;20099;-77
2022/10/29 02:05:45;;;;;;;31.77;16.63;;;;;;;;;;5053184;28;20032;-77
2022/10/29 02:08:22;;;;;;;35.50;19.50;;;;;;;;;;5035324;28;20063;-76
2022/10/29 02:11:12;;;;;;;37.53;18.73;;;;;;;;;;5053084;28;20059;-77
2022/10/29 02:13:59;;;;;;;32.15;17.92;;;;;;;;;;5034926;28;20119;-76
2022/10/29 02:16:26;;;;;;;31.15;17.38;;;;;;;;;;5049724;28;20037;-76
2022/10/29 02:18:52;;;;;;;33.53;17.77;;;;;;;;;;5035693;28;20028;-77
2022/10/29 02:21:19;;;;;;;31.23;17.55;;;;;;;;;;5021678;28;20552;-77
2022/10/29 02:23:45;;;;;;;36.95;19.23;;;;;;;;;;5015476;28;20021;-76
2022/10/29 02:26:14;;;;;;;36.20;20.10;;;;;;;;;;5014442;28;20393;-77
2022/10/29 02:28:40;;;;;;;31.90;17.88;;;;;;;;;;5014855;28;20025;-77
2022/10/29 02:31:06;;;;;;;32.03;18.13;;;;;;;;;;5032211;28;20496;-76
2022/10/29 02:33:31;;;;;;;29.58;18.02;;;;;;;;;;5032517;28;20029;-76
2022/10/29 02:35:57;;;;;;;30.90;17.40;;;;;;;;;;5014936;28;20478;-77
2022/10/29 02:38:22;;;;;;;33.65;18.63;;;;;;;;;;5032481;28;20033;-76
2022/10/29 02:40:47;;;;;;;30.52;17.85;;;;;;;;;;5032608;28;20053;-75
2022/10/29 02:43:13;;;;;;;32.15;17.73;;;;;;;;;;5032596;28;20029;-76
2022/10/29 02:45:39;;;;;;;35.10;18.50;;;;;;;;;;5030727;28;20116;-77
2022/10/29 02:48:04;;;;;;;33.88;18.27;;;;;;;;;;5014044;28;20378;-76
2022/10/29 02:50:30;;;;;;;38.17;19.92;;;;;;;;;;5032580;28;20358;-77
2022/10/29 02:52:55;;;;;;;33.95;17.77;;;;;;;;;;5030802;28;20485;-77
2022/10/29 02:55:21;;;;;;;31.08;18.25;;;;;;;;;;5014074;28;20101;-76
2022/10/29 02:57:46;;;;;;;34.70;17.52;;;;;;;;;;5031873;28;20064;-76
2022/10/29 03:00:13;;;;;;;36.17;17.70;;;;;;;;;;5031786;28;20060;-77
2022/10/29 03:02:38;;;;;;;33.03;18.33;;;;;;;;;;5032044;28;20058;-76
2022/10/29 03:05:05;;;;;;;29.27;17.55;;;;;;;;;;5032068;28;20064;-76
2022/10/29 03:07:37;;;;;;;29.60;17.65;;;;;;;;;;5030101;28;20021;-76
2022/10/29 03:10:04;;;;;;;32.38;17.40;;;;;;;;;;5032193;28;20030;-76
2022/10/29 03:12:30;;;;;;;37.58;17.52;;;;;;;;;;5014589;28;20057;-76
2022/10/29 03:14:56;;;;;;;33.30;17.90;;;;;;;;;;5032380;28;20437;-76
2022/10/29 03:17:21;;;;;;;31.50;18.13;;;;;;;;;;5013437;28;20025;-75
2022/10/29 03:19:47;;;;;;;26.05;16.52;;;;;;;;;;5014367;28;20034;-75
2022/10/29 03:22:12;;;;;;;37.20;17.83;;;;;;;;;;5023985;28;20049;-75
2022/10/29 03:24:38;;;;;;;33.40;17.80;;;;;;;;;;5052279;28;20551;-75
2022/10/29 03:27:03;;;;;;;32.35;17.33;;;;;;;;;;5051743;28;20024;-75
2022/10/29 03:29:29;;;;;;;34.22;18.67;;;;;;;;;;5051225;28;20416;-77
2022/10/29 03:31:54;;;;;;;36.30;18.95;;;;;;;;;;5050824;28;20025;-75
2022/10/29 03:34:20;;;;;;;30.25;18.20;;;;;;;;;;5050151;28;20028;-76
2022/10/29 03:36:45;;;;;;;28.13;17.33;;;;;;;;;;5051915;28;20031;-77
2022/10/29 03:39:11;;;;;;;32.72;17.38;;;;;;;;;;5050437;28;20048;-77
2022/10/29 03:41:36;;;;;;;32.03;18.10;;;;;;;;;;5052601;28;20377;-76
2022/10/29 03:44:02;;;;;;;30.60;17.92;;;;;;;;;;5034132;28;20032;-76
2022/10/29 03:46:27;;;;;;;29.48;17.30;;;;;;;;;;5033733;28;20453;-77
2022/10/29 03:48:53;;;;;;;28.25;16.75;;;;;;;;;;5034396;28;20059;-76
2022/10/29 03:51:18;;;;;;;31.25;16.75;;;;;;;;;;5051381;28;20033;-76
2022/10/29 03:53:43;;;;;;;31.25;17.80;;;;;;;;;;5052027;28;20056;-76
2022/10/29 03:56:09;;;;;;;28.23;17.23;;;;;;;;;;5051556;28;20033;-77
2022/10/29 03:58:35;;;;;;;35.15;17.05;;;;;;;;;;5051733;28;20036;-76
2022/10/29 04:01:03;;;;;;;30.10;16.45;;;;;;;;;;5050662;28;20167;-78
2022/10/29 04:03:30;;;;;;;31.13;17.90;;;;;;;;;;5052256;28;20025;-78
2022/10/29 04:05:57;;;;;;;28.98;16.88;;;;;;;;;;5033732;28;20330;-77
2022/10/29 04:08:23;;;;;;;25.83;17.05;;;;;;;;;;5033730;28;20037;-77
2022/10/29 04:10:49;;;;;;;26.98;17.75;;;;;;;;;;5033745;28;20024;-78
2022/10/29 04:13:15;;;;;;;29.58;17.13;;;;;;;;;;5034228;28;20021;-76
2022/10/29 04:15:41;;;;;;;28.10;16.58;;;;;;;;;;5051679;28;20037;-77
2022/10/29 04:18:07;;;;;;;30.98;16.05;;;;;;;;;;5051826;28;20032;-77
2022/10/29 04:20:34;;;;;;;28.20;15.85;;;;;;;;;;5033881;28;20092;-77
2022/10/29 04:22:59;;;;;;;35.83;16.75;;;;;;;;;;5033707;28;20079;-79
2022/10/29 04:25:25;;;;;;;28.20;16.42;;;;;;;;;;5051462;28;20056;-78
2022/10/29 04:27:53;;;;;;;29.15;15.02;;;;;;;;;;5051214;28;20026;-77
2022/10/29 04:30:19;;;;;;;27.42;16.63;;;;;;;;;;5035894;28;20021;-76
2022/10/29 04:32:45;;;;;;;24.48;14.88;;;;;;;;;;5037911;28;20028;-75
2022/10/29 04:35:10;;;;;;;26.83;13.82;;;;;;;;;;5055904;28;20086;-76
2022/10/29 04:37:36;;;;;;;31.55;15.40;;;;;;;;;;5056295;28;20045;-77
2022/10/29 04:40:01;;;;;;;26.25;14.48;;;;;;;;;;5037275;28;20029;-77
2022/10/29 04:42:27;;;;;;;30.05;14.90;;;;;;;;;;5054873;28;20024;-76
2022/10/29 04:44:52;;;;;;;33.67;16.95;;;;;;;;;;5037178;28;20032;-78
2022/10/29 04:47:17;;;;;;;24.88;16.15;;;;;;;;;;5037682;28;20031;-77
2022/10/29 04:49:43;;;;;;;31.58;16.35;;;;;;;;;;5055263;28;20037;-77
2022/10/29 04:52:09;;;;;;;32.45;17.02;;;;;;;;;;5036178;28;20105;-76
2022/10/29 04:54:35;;;;;;;27.42;15.57;;;;;;;;;;5055415;28;20032;-76
2022/10/29 04:57:00;;;;;;;29.17;16.33;;;;;;;;;;5037781;28;20021;-76
2022/10/29 04:59:26;;;;;;;27.00;15.55;;;;;;;;;;5021216;28;20087;-75
2022/10/29 05:01:52;;;;;;;29.70;16.00;;;;;;;;;;5056252;28;20098;-75
2022/10/29 05:04:18;;;;;;;30.48;16.52;;;;;;;;;;5056058;28;20044;-76
2022/10/29 05:06:43;;;;;;;33.47;17.17;;;;;;;;;;5055790;28;20029;-77
2022/10/29 05:09:09;;;;;;;30.40;17.40;;;;;;;;;;5055025;28;20081;-76
2022/10/29 05:11:34;;;;;;;32.90;17.55;;;;;;;;;;5037779;28;20078;-77
2022/10/29 05:14:00;;;;;;;29.48;18.05;;;;;;;;;;5055454;28;20036;-77
2022/10/29 05:16:26;;;;;;;31.67;16.92;;;;;;;;;;5036996;28;20499;-76
2022/10/29 05:18:51;;;;;;;34.53;18.13;;;;;;;;;;5020741;28;20120;-76
2022/10/29 05:21:17;;;;;;;32.90;17.58;;;;;;;;;;5054731;28;20065;-77
2022/10/29 05:23:42;;;;;;;31.30;17.48;;;;;;;;;;5036975;28;20055;-75
2022/10/29 05:26:08;;;;;;;31.05;17.92;;;;;;;;;;5007983;28;20036;-75
2022/10/29 05:28:33;;;;;;;35.83;17.83;;;;;;;;;;5034870;28;20035;-76
2022/10/29 05:31:01;;;;;;;38.75;18.13;;;;;;;;;;5034410;28;20457;-77
2022/10/29 05:33:27;;;;;;;35.05;17.52;;;;;;;;;;5035022;28;20036;-77
2022/10/29 05:35:52;;;;;;;35.95;17.98;;;;;;;;;;5035294;28;20021;-76
2022/10/29 05:38:18;;;;;;;36.05;19.20;;;;;;;;;;5034742;28;20029;-77
2022/10/29 05:40:44;;;;;;;38.42;18.17;;;;;;;;;;5033609;28;20108;-76
2022/10/29 05:43:11;;;;;;;34.90;17.42;;;;;;;;;;5034237;28;20060;-76
2022/10/29 05:45:37;;;;;;;39.55;19.20;;;;;;;;;;5016883;28;20026;-77
2022/10/29 05:48:03;;;;;;;34.33;18.10;;;;;;;;;;5034672;28;20503;-76
2022/10/29 05:50:30;;;;;;;33.40;17.88;;;;;;;;;;5016576;28;20048;-77
2022/10/29 05:53:06;;;;;;;32.53;17.08;;;;;;;;;;5035101;28;20489;-77
2022/10/29 05:55:33;;;;;;;29.48;18.25;;;;;;;;;;5034797;28;20491;-77
2022/10/29 05:58:01;;;;;;;32.75;19.33;;;;;;;;;;5035103;28;20034;-76
2022/10/29 06:00:28;;;;;;;31.42;16.52;;;;;;;;;;5034565;28;20044;-77
2022/10/29 06:02:54;;;;;;;29.75;16.65;;;;;;;;;;5034263;28;20029;-78
2022/10/29 06:05:20;;;;;;;26.55;15.93;;;;;;;;;;5016447;28;20033;-77
2022/10/29 06:07:53;;;;;;;36.35;16.33;;;;;;;;;;5016216;28;20470;-77
2022/10/29 06:10:18;;;;;;;29.58;15.77;;;;;;;;;;5034381;28;20044;-77
2022/10/29 06:12:44;;;;;;;28.00;16.05;;;;;;;;;;5034180;28;20033;-77
2022/10/29 06:15:09;;;;;;;27.30;16.30;;;;;;;;;;5034090;28;20087;-77
2022/10/29 06:17:40;;;;;;;27.70;15.60;;;;;;;;;;5034126;28;20497;-77
2022/10/29 06:20:07;;;;;;;26.35;15.40;;;;;;;;;;5033085;28;20037;-77
2022/10/29 06:22:32;;;;;;;28.90;16.33;;;;;;;;;;5033251;28;20057;-77
2022/10/29 06:24:58;;;;;;;28.95;14.85;;;;;;;;;;5032165;28;20120;-77
2022/10/29 06:27:24;;;;;;;29.13;14.45;;;;;;;;;;5033664;28;20026;-76
2022/10/29 06:29:50;;;;;;;23.77;14.30;;;;;;;;;;5033374;28;20072;-76
2022/10/29 06:32:15;;;;;;;30.10;19.27;;;;;;;;;;5033574;28;20489;-75
2022/10/29 06:34:41;;;;;;;31.23;15.45;;;;;;;;;;5033726;28;20025;-76
2022/10/29 06:37:06;;;;;;;26.77;15.05;;;;;;;;;;5033670;28;20032;-77
2022/10/29 06:39:32;;;;;;;29.63;15.55;;;;;;;;;;5015709;28;20033;-76
2022/10/29 06:41:57;;;;;;;29.05;15.73;;;;;;;;;;5015671;28;20084;-76
2022/10/29 06:44:23;;;;;;;26.13;15.35;;;;;;;;;;5033191;28;20108;-75
2022/10/29 06:46:48;;;;;;;31.33;16.67;;;;;;;;;;5032840;28;20029;-75
2022/10/29 06:49:14;;;;;;;28.80;16.33;;;;;;;;;;5015273;28;20041;-77
2022/10/29 06:51:39;;;;;;;28.38;14.20;;;;;;;;;;5032548;28;20037;-76
2022/10/29 06:54:05;;;;;;;33.88;16.33;;;;;;;;;;5032988;28;20023;-77
2022/10/29 06:56:30;;;;;;;31.00;16.30;;;;;;;;;;5032614;28;20133;-76
2022/10/29 06:58:56;;;;;;;29.42;16.15;;;;;;;;;;5032719;28;20028;-77
2022/10/29 07:01:22;;;;;;;28.02;16.33;;;;;;;;;;5014722;28;20040;-76
2022/10/29 07:03:48;;;;;;;27.83;15.63;;;;;;;;;;5031775;28;20033;-77
2022/10/29 07:06:13;;;;;;;27.92;16.85;;;;;;;;;;5014795;28;20026;-76
2022/10/29 07:08:38;;;;;;;28.98;16.67;;;;;;;;;;5033238;28;20068;-76
2022/10/29 07:11:04;;;;;;;31.27;17.35;;;;;;;;;;5033169;28;20136;-76
2022/10/29 07:13:30;;;;;;;30.60;16.73;;;;;;;;;;5033115;28;20029;-78
2022/10/29 07:15:56;;;;;;;27.75;16.73;;;;;;;;;;5032558;28;20022;-76
2022/10/29 07:18:21;;;;;;;31.95;17.13;;;;;;;;;;5032682;28;20415;-76
2022/10/29 07:20:47;;;;;;;28.92;16.55;;;;;;;;;;5032867;28;20048;-75
2022/10/29 07:23:12;;;;;;;28.63;16.50;;;;;;;;;;5014440;28;20609;-78
2022/10/29 07:25:39;;;;;;;29.67;17.02;;;;;;;;;;5014529;28;20045;-78
2022/10/29 07:28:16;;;;;;;30.83;16.85;;;;;;;;;;5014150;28;20040;-76
2022/10/29 07:30:43;;;;;;;27.02;16.80;;;;;;;;;;5014642;28;20021;-75
2022/10/29 07:33:09;;;;;;;29.75;16.63;;;;;;;;;;5014621;28;20037;-78
2022/10/29 07:35:35;;;;;;;26.00;15.98;;;;;;;;;;5014445;28;20401;-77
2022/10/29 07:38:02;;;;;;;27.08;16.70;;;;;;;;;;5032027;28;20017;-77
2022/10/29 07:40:28;;;;;;;34.38;16.55;;;;;;;;;;5014193;28;20129;-77
2022/10/29 07:42:54;;;;;;;30.08;16.38;;;;;;;;;;5014319;28;20075;-77
2022/10/29 07:45:20;;;;;;;31.25;16.80;;;;;;;;;;5030319;28;20049;-76
2022/10/29 07:47:46;;;;;;;31.85;16.77;;;;;;;;;;5031373;28;20018;-73
2022/10/29 07:50:11;;;;;;;28.52;15.82;;;;;;;;;;5032476;28;20377;-76
2022/10/29 07:52:38;;;;;;;27.90;16.50;;;;;;;;;;5014350;28;20032;-76
2022/10/29 07:55:05;;;;;;;30.50;16.13;;;;;;;;;;5032506;28;20029;-77
2022/10/29 07:57:30;;;;;;;32.13;16.80;;;;;;;;;;5032090;28;20040;-77
2022/10/29 07:59:57;;;;;;;33.35;16.55;;;;;;;;;;5033313;28;20025;-78
2022/10/29 08:02:23;;;;;;;32.90;18.77;;;;;;;;;;5014576;28;20029;-78
2022/10/29 08:04:48;;;;;;;34.33;17.13;;;;;;;;;;5035932;28;20029;-76
2022/10/29 08:07:14;;;;;;;37.53;19.17;;;;;;;;;;5021102;28;20025;-77
2022/10/29 08:09:40;;;;;;;27.90;17.50;;;;;;;;;;5038907;28;20060;-77
2022/10/29 08:12:08;;;;;;;33.22;18.20;;;;;;;;;;5021272;28;20056;-77
2022/10/29 08:14:34;;;;;;;33.25;17.42;;;;;;;;;;5021039;28;20120;-77
2022/10/29 08:16:59;;;;;;;34.47;17.58;;;;;;;;;;5038376;28;20105;-76
2022/10/29 08:19:25;;;;;;;33.45;18.52;;;;;;;;;;5037403;28;20017;-77
2022/10/29 08:21:52;;;;;;;31.02;17.45;;;;;;;;;;5038890;28;20049;-78
2022/10/29 08:24:18;;;;;;;35.00;18.77;;;;;;;;;;5037541;28;20528;-77
2022/10/29 08:26:44;;;;;;;33.78;18.95;;;;;;;;;;5038767;28;20455;-78
2022/10/29 08:29:10;;;;;;;37.08;18.80;;;;;;;;;;5021113;28;20107;-77
2022/10/29 08:31:35;;;;;;;36.80;19.23;;;;;;;;;;5021448;28;20043;-75
2022/10/29 08:34:01;;;;;;;33.20;18.25;;;;;;;;;;5022054;28;20033;-76
2022/10/29 08:36:26;;;;;;;38.58;19.90;;;;;;;;;;5021683;28;20032;-77
2022/10/29 08:38:53;;;;;;;33.53;17.88;;;;;;;;;;5039017;28;20465;-77
2022/10/29 08:41:24;;;;;;;34.47;18.73;;;;;;;;;;5039104;28;20057;-76
2022/10/29 08:44:02;;;;;;;35.45;20.98;;;;;;;;;;5039524;28;20021;-78
2022/10/29 08:46:45;;;;;;;36.15;20.27;;;;;;;;;;5038620;28;20041;-78
2022/10/29 08:49:20;;;;;;;38.55;20.00;;;;;;;;;;5039365;28;20032;-77
2022/10/29 08:51:59;;;;;;;34.72;18.63;;;;;;;;;;5038673;28;20025;-77
2022/10/29 08:54:29;;;;;;;32.92;17.75;;;;;;;;;;5020888;28;20083;-77
2022/10/29 08:56:58;;;;;;;30.67;17.77;;;;;;;;;;5038900;28;20021;-76
2022/10/29 08:59:30;;;;;;;30.73;18.38;;;;;;;;;;5037893;28;20401;-75
2022/10/29 09:01:56;;;;;;;33.10;18.35;;;;;;;;;;5038914;28;20031;-76
2022/10/29 09:04:28;;;;;;;34.55;18.75;;;;;;;;;;5020846;28;20503;-76
2022/10/29 09:07:28;;;;;;;34.13;17.15;;;;;;;;;;5038157;28;20048;-78
2022/10/29 09:10:06;;;;;;;29.17;17.10;;;;;;;;;;5020825;28;20025;-76
2022/10/29 09:13:29;;;;;;;32.58;17.73;;;;;;;;;;5037587;28;20030;-76
2022/10/29 09:16:30;;;;;;;28.27;16.08;;;;;;;;;;4959461;28;20208;-77
2022/10/29 09:19:16;;;;;;;29.38;17.48;;;;;;;;;;4969538;28;20079;-78
2022/10/29 09:22:08;;;;;;;26.50;16.02;;;;;;;;;;5026965;28;20049;-76
2022/10/29 09:24:42;;;;;;;34.20;15.10;;;;;;;;;;5017521;28;20075;-79
2022/10/29 09:27:17;;;;;;;27.15;15.95;;;;;;;;;;5035911;28;20032;-78
2022/10/29 09:29:51;;;;;;;30.00;15.95;;;;;;;;;;5017438;28;20022;-77
2022/10/29 09:32:39;;;;;;;27.52;15.07;;;;;;;;;;5017114;28;20112;-75
2022/10/29 09:35:14;;;;;;;29.95;15.50;;;;;;;;;;5016831;28;20321;-77
2022/10/29 09:37:57;;;;;;;24.67;14.55;;;;;;;;;;5016886;28;20025;-77
2022/10/29 09:40:34;;;;;;;25.38;15.13;;;;;;;;;;5017193;28;20029;-77
2022/10/29 09:43:06;;;;;;;31.20;15.88;;;;;;;;;;5017359;28;20033;-76
2022/10/29 09:45:40;;;;;;;;;;;;;;;;;;5035609;28;20056;-76
2022/10/29 09:48:32;;;;;;;25.38;14.98;;;;;;;;;;5017274;28;19913;-77
2022/10/29 09:51:18;;;;;;;25.13;15.75;;;;;;;;;;5012782;28;20038;-77
2022/10/29 09:53:44;;;;;;;25.83;15.55;;;;;;;;;;5034479;28;20036;-75
2022/10/29 09:56:09;;;;;;;20.55;14.60;;;;;;;;;;5034393;28;20026;-76
2022/10/29 09:58:40;;;;;;;24.90;14.57;;;;;;;;;;5016239;28;20029;-79
2022/10/29 10:01:06;;;;;;;24.30;14.82;;;;;;;;;;5016983;28;20496;-77
2022/10/29 10:03:44;;;;;;;23.23;16.02;;;;;;;;;;5034496;28;20034;-78
2022/10/29 10:06:15;;;;;;;23.77;14.27;;;;;;;;;;5017966;28;20037;-76
2022/10/29 10:09:13;;;;;;;24.95;14.85;;;;;;;;;;5016547;28;20117;-77
2022/10/29 10:11:48;;;;;;;28.42;15.18;;;;;;;;;;5000778;28;20033;-76
2022/10/29 10:14:18;;;;;;;26.48;15.35;;;;;;;;;;5033669;28;20075;-77
2022/10/29 10:16:44;;;;;;;24.55;15.70;;;;;;;;;;5033849;28;20022;-78
2022/10/29 10:19:28;;;;;;;27.15;15.25;;;;;;;;;;5015700;28;20543;-76
2022/10/29 10:22:03;;;;;;;25.17;14.85;;;;;;;;;;5016463;28;20050;-77
2022/10/29 10:24:39;;;;;;;24.15;14.82;;;;;;;;;;5016308;28;20041;-77
2022/10/29 10:27:29;;;;;;;54.85;18.13;;;;;;;;;;5015668;28;20133;-77
2022/10/29 10:30:11;;;;;;;27.08;14.05;;;;;;;;;;5007179;28;20057;-78
2022/10/29 10:32:37;;;;;;;;;;;;;;;;;;5016494;28;20041;-77
2022/10/29 10:35:20;;;;;;;25.02;12.73;;;;;;;;;;5033984;28;19909;-77
2022/10/29 10:37:46;;;;;;;24.27;12.18;;;;;;;;;;5016264;28;20069;-76
2022/10/29 10:40:21;;;;;;;23.88;14.00;;;;;;;;;;5033608;28;20045;-78
2022/10/29 10:42:53;;;;;;;27.30;13.82;;;;;;;;;;5016458;28;20053;-77
2022/10/29 10:45:38;;;;;;;21.10;11.20;;;;;;;;;;5033824;28;20079;-79
2022/10/29 10:48:09;;;;;;;14.80;10.77;;;;;;;;;;5034966;28;20053;-77
2022/10/29 10:50:35;;;;;;;18.65;10.10;;;;;;;;;;5034163;28;20076;-78
2022/10/29 10:53:05;;;;;;;18.98;11.02;;;;;;;;;;5033547;28;20060;-76
2022/10/29 10:55:33;;;;;;;17.17;10.55;;;;;;;;;;5015896;28;20026;-76
2022/10/29 10:58:26;;;;;;;15.00;10.88;;;;;;;;;;5015801;28;20139;-77
2022/10/29 11:00:57;;;;;;;18.60;10.35;;;;;;;;;;5033532;28;20128;-75
2022/10/29 11:03:35;;;;;;;16.95;10.90;;;;;;;;;;5033009;28;20547;-78
2022/10/29 11:06:08;;;;;;;15.13;10.02;;;;;;;;;;5016887;28;20025;-78
2022/10/29 11:08:41;;;;;;;17.10;10.50;;;;;;;;;;5015397;28;20029;-77
2022/10/29 11:11:20;;;;;;;18.15;10.05;;;;;;;;;;5033677;28;20436;-77
2022/10/29 11:13:48;;;;;;;16.63;10.85;;;;;;;;;;5000748;28;20416;-79
2022/10/29 11:16:40;;;;;;;15.70;11.23;;;;;;;;;;5033060;28;20033;-77
2022/10/29 11:19:23;;;;;;;23.90;10.43;;;;;;;;;;5015821;28;20033;-76
2022/10/29 11:21:51;;;;;;;21.30;10.57;;;;;;;;;;5015084;28;20045;-77
2022/10/29 11:24:26;;;;;;;15.18;9.25;;;;;;;;;;5015860;28;20025;-75
2022/10/29 11:27:01;;;;;;;19.67;9.70;;;;;;;;;;5051229;28;20028;-77
2022/10/29 11:29:42;;;;;;;18.08;10.82;;;;;;;;;;5053086;28;20024;-76
2022/10/29 11:32:22;;;;;;;16.83;9.60;;;;;;;;;;5035061;28;20049;-78
2022/10/29 11:35:18;;;;;;;21.08;10.20;;;;;;;;;;5053014;28;20031;-77
2022/10/29 11:38:00;;;;;;;15.32;9.68;;;;;;;;;;5052470;28;20028;-77
2022/10/29 11:40:34;;;;;;;20.10;8.80;;;;;;;;;;5034482;28;20025;-76
2022/10/29 11:43:02;;;;;;;18.35;9.43;;;;;;;;;;5035250;28;20131;-79
2022/10/29 11:45:34;;;;;;;28.83;12.32;;;;;;;;;;5034659;28;20025;-75
2022/10/29 11:48:34;;;;;;;17.77;9.90;;;;;;;;;;5035879;28;20060;-75
2022/10/29 11:51:15;;;;;;;19.30;8.73;;;;;;;;;;5052357;28;20075;-77
2022/10/29 11:53:58;;;;;;;36.00;9.83;;;;;;;;;;5034942;28;20021;-75
2022/10/29 11:56:46;;;;;;;17.65;10.05;;;;;;;;;;5053096;28;20114;-77
2022/10/29 11:59:30;;;;;;;15.98;8.63;;;;;;;;;;5036209;28;20035;-75
2022/10/29 12:02:20;;;;;;;16.83;8.25;;;;;;;;;;5036173;28;20036;-77
2022/10/29 12:05:02;;;;;;;14.02;8.35;;;;;;;;;;5034917;28;20029;-77
2022/10/29 12:07:46;;;;;;;;;;;;;;;;;;5053323;28;20021;-78
2022/10/29 12:10:45;;;;;;;11.70;8.15;;;;;;;;;;5035416;28;19908;-76
2022/10/29 12:13:35;;;;;;;19.33;10.85;;;;;;;;;;5053255;28;20029;-78
2022/10/29 12:16:19;;;;;;;20.08;10.45;;;;;;;;;;5053222;28;20024;-75
2022/10/29 12:19:01;;;;;;;21.02;10.25;;;;;;;;;;5052897;28;20384;-77
2022/10/29 12:21:33;;;;;;;18.13;9.75;;;;;;;;;;5035533;28;20076;-76
2022/10/29 12:24:18;;;;;;;;;;;;;;;;;;5036207;28;20060;-77
2022/10/29 12:27:12;;;;;;;18.42;10.48;;;;;;;;;;5035805;28;20020;-76
2022/10/29 12:29:46;;;;;;;18.45;9.25;;;;;;;;;;5014430;28;20504;-77
2022/10/29 12:32:18;;;;;;;21.63;15.13;;;;;;;;;;5030939;28;20362;-76
2022/10/29 12:35:01;;;;;;;28.20;16.90;;;;;;;;;;5032375;28;20029;-78
2022/10/29 12:37:33;;;;;;;61.22;42.88;;;;;;;;;;5013950;28;20187;-77
2022/10/29 12:40:01;;;;;;;;;;;;;;;;;;5013888;28;20029;-76
2022/10/29 12:42:31;;;;;;;19.05;12.35;;;;;;;;;;5014503;28;19909;-76
2022/10/29 12:45:14;;;;;;;18.17;12.00;;;;;;;;;;5014607;28;20060;-76
2022/10/29 12:47:53;;;;;;;17.30;9.35;;;;;;;;;;5013663;28;20477;-77
2022/10/29 12:50:37;;;;;;;21.77;9.30;;;;;;;;;;5014887;28;20531;-76
2022/10/29 12:53:38;;;;;;;16.13;9.50;;;;;;;;;;5035383;28;20109;-77
2022/10/29 12:56:07;;;;;;;15.95;9.70;;;;;;;;;;4955596;29;20042;-77
2022/10/29 12:58:51;;;;;;;20.25;11.38;;;;;;;;;;5020710;28;20064;-78
2022/10/29 13:01:26;;;;;;;33.25;14.95;;;;;;;;;;5002316;28;20034;-78
2022/10/29 13:03:53;;;;;;;33.53;15.10;;;;;;;;;;5035463;28;20060;-76
2022/10/29 13:06:40;;;;;;;28.15;14.48;;;;;;;;;;5017739;28;20025;-77
2022/10/29 13:09:20;;;;;;;24.80;14.77;;;;;;;;;;5035708;28;20025;-76
2022/10/29 13:11:53;;;;;;;25.42;15.10;;;;;;;;;;5017243;28;20496;-75
2022/10/29 13:14:23;;;;;;;23.15;15.10;;;;;;;;;;5035789;28;20113;-76
2022/10/29 13:16:51;;;;;;;30.88;15.73;;;;;;;;;;5017725;28;20040;-77
2022/10/29 13:19:23;;;;;;;33.03;16.20;;;;;;;;;;5017632;28;20021;-76
2022/10/29 13:22:26;;;;;;;28.67;15.63;;;;;;;;;;5017786;28;20049;-78
2022/10/29 13:25:29;;;;;;;24.60;14.88;;;;;;;;;;5017501;28;20021;-77
2022/10/29 13:27:55;;;;;;;25.45;16.23;;;;;;;;;;5017135;28;20115;-76
2022/10/29 13:30:27;;;;;;;27.25;15.98;;;;;;;;;;5034799;28;20065;-75
2022/10/29 13:32:54;;;;;;;26.77;16.27;;;;;;;;;;5034540;28;20037;-77
2022/10/29 13:35:20;;;;;;;33.63;16.92;;;;;;;;;;5016762;28;20480;-76
2022/10/29 13:37:45;;;;;;;26.38;15.32;;;;;;;;;;5034213;28;20017;-77
2022/10/29 13:40:29;;;;;;;27.10;15.13;;;;;;;;;;5034426;28;20064;-77
2022/10/29 13:43:04;;;;;;;29.27;15.27;;;;;;;;;;5016697;28;20031;-76
2022/10/29 13:45:32;;;;;;;28.00;16.27;;;;;;;;;;5016674;28;20033;-77
2022/10/29 13:48:06;;;;;;;27.00;14.93;;;;;;;;;;5018511;28;20464;-79
2022/10/29 13:50:34;;;;;;;28.05;15.45;;;;;;;;;;5033765;28;20366;-77
2022/10/29 13:53:02;;;;;;;26.67;16.00;;;;;;;;;;4999930;28;20430;-77
2022/10/29 13:55:31;;;;;;;29.73;15.77;;;;;;;;;;5016031;28;20560;-76
2022/10/29 13:58:11;;;;;;;29.60;17.58;;;;;;;;;;5016277;28;20034;-78
2022/10/29 14:00:37;;;;;;;26.63;15.80;;;;;;;;;;5015710;28;20500;-78
2022/10/29 14:03:36;;;;;;;28.60;17.67;;;;;;;;;;5015322;28;20083;-78
2022/10/29 14:06:09;;;;;;;31.65;17.02;;;;;;;;;;4992575;28;20444;-76
2022/10/29 14:08:49;;;;;;;25.55;16.15;;;;;;;;;;5034764;28;20025;-77
2022/10/29 14:11:38;;;;;;;35.03;17.63;;;;;;;;;;5033843;28;20029;-76
2022/10/29 14:14:14;;;;;;;25.88;14.98;;;;;;;;;;5033931;28;20025;-76
2022/10/29 14:16:40;;;;;;;29.05;15.10;;;;;;;;;;5033965;28;20029;-78
2022/10/29 14:19:20;;;;;;;28.50;16.48;;;;;;;;;;5016149;28;20029;-76
2022/10/29 14:21:45;;;;;;;28.05;17.17;;;;;;;;;;4999834;28;20049;-77
2022/10/29 14:24:15;;;;;;;27.77;16.17;;;;;;;;;;5034111;28;20041;-78
2022/10/29 14:26:42;;;;;;;31.10;16.33;;;;;;;;;;5032868;28;20107;-79
2022/10/29 14:29:24;;;;;;;27.45;14.70;;;;;;;;;;5054300;28;20025;-78
2022/10/29 14:32:11;;;;;;;30.77;16.30;;;;;;;;;;5053751;28;20086;-77
2022/10/29 14:34:36;;;;;;;30.85;16.08;;;;;;;;;;5053674;28;20030;-75
2022/10/29 14:37:27;;;;;;;29.80;14.70;;;;;;;;;;5054251;28;20436;-78
2022/10/29 14:39:56;;;;;;;27.20;15.93;;;;;;;;;;5035691;28;20078;-77
2022/10/29 14:42:37;;;;;;;28.30;16.20;;;;;;;;;;5035627;28;20503;-77
2022/10/29 14:45:07;;;;;;;24.50;15.05;;;;;;;;;;5036369;28;20447;-77